Time;durP1;ratioP1;P1;durP2;ratioP2;P2;SDS_P1;SDS_P2;PMS_P1;PMS_P2;Temp;Humidity;BMP_temperature;BMP_pressure;BME280_temperature;BME280_humidity;BME280_pressure;Samples;Min_cycle;Max_cycle;Signal;HPM_P1;HPM_P2
2023/09/20 00:02:22;;;;;;;7.13;1.30;;;19.10;95.50;;;;;;4997659;28;20050;-79
2023/09/20 00:04:49;;;;;;;8.43;1.60;;;19.10;95.30;;;;;;5015222;28;20068;-79
2023/09/20 00:07:14;;;;;;;6.45;1.30;;;19.10;95.40;;;;;;5015079;28;20026;-80
2023/09/20 00:09:40;;;;;;;8.52;1.25;;;19.10;95.30;;;;;;4997508;28;20030;-79
2023/09/20 00:12:07;;;;;;;8.02;1.48;;;19.10;95.20;;;;;;4997694;28;20033;-80
2023/09/20 00:14:32;;;;;;;4.25;1.38;;;19.10;95.30;;;;;;5013517;28;20116;-79
2023/09/20 00:17:00;;;;;;;7.47;1.30;;;19.10;95.30;;;;;;4981767;28;20049;-79
2023/09/20 00:19:26;;;;;;;5.22;1.00;;;19.10;95.30;;;;;;4982167;28;20033;-79
2023/09/20 00:21:52;;;;;;;7.25;1.25;;;19.10;95.30;;;;;;4997142;28;20430;-79
2023/09/20 00:24:17;;;;;;;8.05;1.30;;;19.20;95.40;;;;;;5014605;28;20117;-80
2023/09/20 00:26:43;;;;;;;7.03;1.27;;;19.20;95.30;;;;;;5014810;28;20053;-79
2023/09/20 00:29:09;;;;;;;5.07;1.13;;;19.20;95.30;;;;;;5015630;28;20040;-79
2023/09/20 00:31:34;;;;;;;5.95;1.10;;;19.20;95.40;;;;;;4984198;28;20048;-79
2023/09/20 00:34:03;;;;;;;5.85;1.17;;;19.20;95.40;;;;;;4999026;28;20186;-79
2023/09/20 00:36:30;;;;;;;11.75;1.70;;;19.20;95.30;;;;;;5016969;28;20021;-79
2023/09/20 00:38:57;;;;;;;3.97;1.30;;;19.20;95.50;;;;;;5001656;28;20030;-79
2023/09/20 00:41:23;;;;;;;4.22;1.13;;;19.20;95.50;;;;;;4999309;28;20034;-79
2023/09/20 00:43:52;;;;;;;4.72;1.17;;;19.20;95.50;;;;;;5014290;28;20053;-79
2023/09/20 00:46:19;;;;;;;6.57;1.50;;;19.30;95.50;;;;;;4997035;28;20038;-79
2023/09/20 00:48:45;;;;;;;5.68;1.05;;;19.30;95.40;;;;;;4996738;28;20026;-79
2023/09/20 00:51:12;;;;;;;4.13;1.35;;;19.20;95.40;;;;;;5014704;28;20117;-78
2023/09/20 00:53:38;;;;;;;9.45;1.30;;;19.20;95.50;;;;;;4996804;28;20455;-79
2023/09/20 00:56:06;;;;;;;8.73;1.27;;;19.20;95.50;;;;;;4996575;28;20056;-79
2023/09/20 00:58:34;;;;;;;6.05;0.85;;;19.20;95.50;;;;;;4996936;28;20030;-79
2023/09/20 01:01:00;;;;;;;9.38;1.45;;;19.20;95.80;;;;;;4996390;28;20026;-78
2023/09/20 01:03:28;;;;;;;3.72;1.30;;;19.20;95.40;;;;;;5014017;28;20033;-79
2023/09/20 01:05:54;;;;;;;7.82;1.75;;;19.20;95.50;;;;;;4996517;28;20072;-79
2023/09/20 01:08:20;;;;;;;3.97;0.93;;;19.20;95.60;;;;;;5014264;28;20088;-79
2023/09/20 01:10:47;;;;;;;6.70;1.30;;;19.20;95.60;;;;;;4996037;28;20057;-79
2023/09/20 01:13:15;;;;;;;5.45;1.38;;;19.20;95.60;;;;;;4996437;28;20420;-79
2023/09/20 01:15:41;;;;;;;4.85;1.45;;;19.30;95.70;;;;;;5013717;28;20084;-78
2023/09/20 01:18:07;;;;;;;5.28;1.17;;;19.30;95.70;;;;;;5014575;28;20028;-79
2023/09/20 01:20:36;;;;;;;10.20;1.63;;;19.30;95.50;;;;;;4995894;28;20022;-78
2023/09/20 01:23:02;;;;;;;7.90;1.88;;;19.30;95.60;;;;;;4996039;28;20261;-78
2023/09/20 01:25:43;;;;;;;6.88;1.27;;;19.20;95.60;;;;;;5013197;28;20022;-78
2023/09/20 01:28:10;;;;;;;6.32;1.15;;;19.20;95.60;;;;;;4996111;28;20061;-79
2023/09/20 01:30:37;;;;;;;7.85;1.33;;;19.20;95.60;;;;;;4980220;28;20061;-78
2023/09/20 01:33:06;;;;;;;7.40;1.00;;;19.20;95.60;;;;;;5013549;28;20034;-79
2023/09/20 01:35:33;;;;;;;6.25;1.17;;;19.10;95.60;;;;;;4996512;28;20451;-79
2023/09/20 01:37:59;;;;;;;6.03;1.30;;;19.10;95.60;;;;;;4995864;28;20076;-79
2023/09/20 01:40:26;;;;;;;7.28;1.35;;;19.10;95.70;;;;;;4995837;28;20034;-78
2023/09/20 01:42:53;;;;;;;4.43;1.27;;;19.10;95.60;;;;;;4995739;28;20034;-80
2023/09/20 01:45:20;;;;;;;5.18;1.27;;;19.10;95.60;;;;;;4995735;28;20413;-80
2023/09/20 01:47:52;;;;;;;8.07;1.30;;;19.10;95.60;;;;;;4995764;28;20390;-80
2023/09/20 01:50:24;;;;;;;5.90;1.30;;;19.00;95.90;;;;;;4995673;28;20474;-78
2023/09/20 01:52:55;;;;;;;3.92;0.88;;;19.00;95.70;;;;;;5013183;28;20559;-78
2023/09/20 01:55:22;;;;;;;6.35;1.77;;;19.00;95.70;;;;;;5013078;28;20095;-79
2023/09/20 01:57:50;;;;;;;7.95;1.98;;;19.00;95.70;;;;;;5013431;28;20030;-78
2023/09/20 02:00:22;;;;;;;7.18;1.80;;;19.00;95.80;;;;;;5013449;28;20088;-78
2023/09/20 02:02:53;;;;;;;7.00;1.35;;;19.00;95.90;;;;;;5013512;28;20141;-78
2023/09/20 02:05:19;;;;;;;6.15;1.42;;;18.90;95.90;;;;;;5013363;28;20034;-79
2023/09/20 02:07:46;;;;;;;4.25;1.02;;;18.90;96.00;;;;;;5013179;28;20061;-78
2023/09/20 02:10:13;;;;;;;5.22;1.30;;;18.90;96.00;;;;;;5013135;28;20108;-78
2023/09/20 02:12:43;;;;;;;7.28;1.40;;;18.90;96.00;;;;;;5013187;28;20065;-79
2023/09/20 02:15:10;;;;;;;4.40;1.45;;;18.80;96.00;;;;;;5012394;28;20034;-79
2023/09/20 02:17:37;;;;;;;7.68;1.40;;;18.80;96.00;;;;;;4995780;28;20042;-80
2023/09/20 02:20:10;;;;;;;5.78;1.55;;;18.80;96.10;;;;;;4996478;28;20026;-80
2023/09/20 02:22:38;;;;;;;8.32;1.30;;;18.80;96.20;;;;;;5012561;28;20033;-80
2023/09/20 02:25:12;;;;;;;4.32;1.48;;;18.80;96.20;;;;;;5013502;28;20029;-80
2023/09/20 02:27:43;;;;;;;6.03;1.20;;;18.80;96.10;;;;;;5013387;28;20501;-81
2023/09/20 02:30:15;;;;;;;6.38;1.67;;;18.70;96.20;;;;;;5013705;28;20026;-81
2023/09/20 02:32:43;;;;;;;5.00;1.05;;;18.70;96.30;;;;;;5013599;28;20058;-81
2023/09/20 02:35:10;;;;;;;7.72;1.52;;;18.70;96.30;;;;;;4995847;28;20110;-81
2023/09/20 02:37:37;;;;;;;6.00;1.15;;;18.70;96.20;;;;;;5014734;28;20037;-82
2023/09/20 02:40:15;;;;;;;4.78;1.38;;;18.70;96.30;;;;;;5016804;28;20394;-80
2023/09/20 02:42:45;;;;;;;4.90;1.40;;;18.70;96.40;;;;;;5017518;28;20028;-80
2023/09/20 02:45:15;;;;;;;3.85;1.17;;;18.70;96.40;;;;;;5017145;28;20046;-80
2023/09/20 02:47:42;;;;;;;9.55;1.30;;;18.70;96.40;;;;;;5017141;28;20421;-81
2023/09/20 02:50:16;;;;;;;4.93;1.17;;;18.70;96.50;;;;;;5017071;28;20022;-81
2023/09/20 02:52:44;;;;;;;5.78;1.23;;;18.80;96.50;;;;;;5017199;28;20497;-80
2023/09/20 02:55:12;;;;;;;5.45;1.30;;;18.80;96.50;;;;;;5016983;28;20030;-81
2023/09/20 02:57:39;;;;;;;3.70;0.95;;;18.80;96.50;;;;;;5017001;28;20455;-80
2023/09/20 03:00:14;;;;;;;5.05;1.33;;;18.80;96.50;;;;;;5016767;28;20026;-81
2023/09/20 03:02:44;;;;;;;4.18;0.95;;;18.80;96.50;;;;;;5016959;28;20022;-80
2023/09/20 03:05:15;;;;;;;5.32;1.00;;;18.80;96.50;;;;;;4999106;28;20042;-80
2023/09/20 03:07:42;;;;;;;3.85;1.17;;;18.80;96.50;;;;;;5015450;28;20050;-80
2023/09/20 03:10:12;;;;;;;6.47;1.20;;;18.80;96.40;;;;;;5016810;28;20030;-80
2023/09/20 03:12:39;;;;;;;4.95;0.82;;;18.90;96.50;;;;;;5016441;28;20121;-80
2023/09/20 03:15:09;;;;;;;5.20;0.95;;;18.90;96.40;;;;;;5016781;28;20045;-80
2023/09/20 03:17:36;;;;;;;4.15;1.15;;;18.90;96.40;;;;;;5016529;28;20505;-80
2023/09/20 03:20:07;;;;;;;4.10;1.00;;;19.00;96.40;;;;;;5016388;28;20159;-80
2023/09/20 03:22:36;;;;;;;5.32;1.10;;;18.90;96.30;;;;;;5016493;28;20124;-80
2023/09/20 03:25:04;;;;;;;3.50;0.90;;;19.00;96.20;;;;;;5016593;28;20054;-80
2023/09/20 03:27:30;;;;;;;3.03;0.73;;;19.00;96.30;;;;;;5016852;28;20033;-80
2023/09/20 03:29:57;;;;;;;5.07;0.98;;;19.00;96.30;;;;;;5017819;28;20033;-80
2023/09/20 03:32:23;;;;;;;5.57;1.90;;;19.00;96.30;;;;;;5016412;28;20030;-81
2023/09/20 03:34:49;;;;;;;4.13;0.82;;;19.00;96.60;;;;;;5016286;28;20041;-81
2023/09/20 03:37:18;;;;;;;6.85;1.05;;;18.90;96.30;;;;;;5016022;28;20479;-80
2023/09/20 03:39:45;;;;;;;5.78;0.98;;;18.90;96.30;;;;;;4999059;28;20092;-79
2023/09/20 03:42:11;;;;;;;5.10;1.23;;;19.00;96.20;;;;;;5016994;28;20037;-80
2023/09/20 03:44:38;;;;;;;7.78;1.30;;;18.90;96.20;;;;;;5016978;28;20068;-80
2023/09/20 03:47:05;;;;;;;5.68;1.30;;;18.90;96.50;;;;;;5016703;28;20033;-81
2023/09/20 03:49:31;;;;;;;5.22;0.95;;;18.90;96.60;;;;;;5016182;28;20105;-80
2023/09/20 03:52:00;;;;;;;3.55;0.90;;;18.90;96.40;;;;;;5015871;28;20459;-81
2023/09/20 03:54:26;;;;;;;3.75;0.80;;;18.90;96.40;;;;;;5015798;28;20025;-81
2023/09/20 03:56:52;;;;;;;4.07;1.38;;;19.00;96.40;;;;;;4997876;28;20034;-81
2023/09/20 03:59:18;;;;;;;6.05;1.27;;;19.00;96.40;;;;;;5015424;28;20084;-81
2023/09/20 04:01:44;;;;;;;3.20;0.98;;;19.00;96.30;;;;;;4998318;28;20470;-81
2023/09/20 04:04:10;;;;;;;5.68;1.17;;;19.00;96.30;;;;;;5015610;28;20037;-80
2023/09/20 04:06:35;;;;;;;6.50;1.23;;;19.00;96.30;;;;;;5015374;28;20030;-80
2023/09/20 04:09:09;;;;;;;5.07;1.10;;;19.10;96.30;;;;;;4998084;28;20108;-80
2023/09/20 04:11:41;;;;;;;4.05;0.93;;;19.00;96.30;;;;;;5016193;28;20101;-81
2023/09/20 04:14:08;;;;;;;5.15;1.05;;;19.00;96.30;;;;;;5015301;28;20033;-81
2023/09/20 04:16:36;;;;;;;3.03;1.17;;;19.00;96.40;;;;;;5015463;28;20112;-80
2023/09/20 04:19:02;;;;;;;5.20;1.08;;;19.00;96.50;;;;;;5015495;28;20363;-80
2023/09/20 04:21:28;;;;;;;3.80;0.93;;;19.00;96.40;;;;;;5015419;28;20025;-82
2023/09/20 04:23:53;;;;;;;6.07;1.42;;;19.10;96.50;;;;;;5015207;28;20080;-82
2023/09/20 04:26:19;;;;;;;5.50;1.05;;;19.00;96.50;;;;;;5015384;28;20535;-81
2023/09/20 04:28:48;;;;;;;5.18;1.20;;;19.00;96.60;;;;;;5015020;28;20030;-81
2023/09/20 04:31:14;;;;;;;5.28;1.33;;;19.00;96.70;;;;;;5015518;28;20025;-80
2023/09/20 04:33:40;;;;;;;5.53;1.20;;;18.90;96.80;;;;;;5015290;28;20030;-81
2023/09/20 04:36:05;;;;;;;8.23;1.38;;;18.90;96.90;;;;;;5014880;28;20029;-80
2023/09/20 04:38:32;;;;;;;6.78;1.08;;;18.80;97.00;;;;;;5015157;28;20459;-79
2023/09/20 04:40:59;;;;;;;6.30;1.00;;;18.80;97.20;;;;;;5014804;28;20076;-81
2023/09/20 04:43:25;;;;;;;4.60;1.30;;;18.70;97.20;;;;;;5014916;28;20053;-81
2023/09/20 04:45:52;;;;;;;4.38;1.40;;;18.70;97.30;;;;;;4997474;28;20145;-79
2023/09/20 04:48:17;;;;;;;4.07;1.10;;;18.70;97.30;;;;;;4997473;28;20448;-80
2023/09/20 04:50:45;;;;;;;7.28;1.52;;;18.60;97.50;;;;;;5014921;28;20033;-80
2023/09/20 04:53:11;;;;;;;5.38;2.08;;;18.60;97.50;;;;;;5014763;28;20121;-79
2023/09/20 04:55:36;;;;;;;6.15;1.60;;;18.60;97.60;;;;;;4997720;28;20106;-79
2023/09/20 04:58:03;;;;;;;5.47;0.95;;;18.60;97.50;;;;;;4997358;28;20042;-79
2023/09/20 05:00:37;;;;;;;6.18;1.20;;;18.60;97.50;;;;;;5014581;28;20030;-80
2023/09/20 05:03:03;;;;;;;7.13;1.55;;;18.50;97.80;;;;;;5013963;28;20112;-79
2023/09/20 05:05:29;;;;;;;4.90;1.20;;;18.50;97.70;;;;;;5014568;28;20049;-81
2023/09/20 05:07:56;;;;;;;5.95;1.40;;;18.40;97.90;;;;;;5014479;28;20057;-79
2023/09/20 05:10:22;;;;;;;4.22;1.23;;;18.30;98.00;;;;;;5014537;28;20054;-79
2023/09/20 05:12:48;;;;;;;6.90;1.70;;;18.30;98.00;;;;;;5014525;28;20076;-79
2023/09/20 05:15:15;;;;;;;3.97;1.40;;;18.40;98.00;;;;;;5014644;28;20141;-79
2023/09/20 05:17:43;;;;;;;4.78;1.10;;;18.40;98.10;;;;;;5014528;28;20029;-79
2023/09/20 05:20:14;;;;;;;6.47;1.38;;;18.30;98.00;;;;;;5014247;28;20424;-80
2023/09/20 05:22:41;;;;;;;5.38;1.38;;;18.30;98.20;;;;;;4997571;28;20090;-80
2023/09/20 05:25:08;;;;;;;9.63;1.77;;;18.30;98.10;;;;;;5014230;28;20112;-79
2023/09/20 05:27:34;;;;;;;9.93;1.83;;;18.30;98.20;;;;;;5014560;28;20034;-80
2023/09/20 05:30:00;;;;;;;5.32;1.45;;;18.30;98.20;;;;;;5014469;28;20030;-81
2023/09/20 05:32:26;;;;;;;9.25;1.55;;;18.20;98.30;;;;;;5014327;28;20083;-81
2023/09/20 05:34:52;;;;;;;8.90;1.65;;;18.20;98.30;;;;;;5014385;28;20038;-81
2023/09/20 05:37:18;;;;;;;7.03;1.92;;;18.20;98.30;;;;;;5014717;28;20034;-81
2023/09/20 05:39:47;;;;;;;5.72;1.30;;;18.20;98.40;;;;;;5014212;28;20129;-82
2023/09/20 05:42:16;;;;;;;6.35;1.88;;;18.30;98.40;;;;;;5013850;28;20049;-81
2023/09/20 05:44:42;;;;;;;3.85;1.23;;;18.30;98.40;;;;;;4996476;28;20191;-81
2023/09/20 05:47:08;;;;;;;5.97;1.42;;;18.30;98.50;;;;;;5014502;28;20113;-80
2023/09/20 05:49:34;;;;;;;5.55;1.40;;;18.30;98.50;;;;;;5013854;28;20191;-81
2023/09/20 05:52:00;;;;;;;6.20;1.50;;;18.30;98.50;;;;;;4996426;28;20033;-81
2023/09/20 05:54:26;;;;;;;5.25;1.40;;;18.30;98.60;;;;;;5014075;28;20030;-81
2023/09/20 05:56:52;;;;;;;6.80;1.95;;;18.30;98.50;;;;;;5013731;28;20034;-82
2023/09/20 05:59:18;;;;;;;5.80;1.35;;;18.30;98.60;;;;;;4997184;28;20026;-81
2023/09/20 06:01:43;;;;;;;5.47;1.50;;;18.30;98.70;;;;;;5013746;28;20033;-81
2023/09/20 06:04:13;;;;;;;5.57;1.30;;;18.30;98.60;;;;;;5015260;28;20029;-83
2023/09/20 06:06:39;;;;;;;3.60;1.23;;;18.30;98.60;;;;;;5015115;28;20379;-81
2023/09/20 06:09:05;;;;;;;6.75;1.25;;;18.40;98.60;;;;;;4995047;28;20074;-82
2023/09/20 06:11:31;;;;;;;5.93;1.35;;;18.40;98.40;;;;;;4994219;28;20034;-82
2023/09/20 06:13:57;;;;;;;9.07;1.50;;;18.50;98.40;;;;;;4999093;28;20040;-81
2023/09/20 06:16:23;;;;;;;4.85;1.00;;;18.40;98.40;;;;;;4998099;28;20117;-83
2023/09/20 06:18:49;;;;;;;7.43;1.13;;;18.50;98.40;;;;;;4998783;28;20057;-82
2023/09/20 06:21:17;;;;;;;4.72;1.23;;;18.50;98.50;;;;;;4998600;28;20026;-81
2023/09/20 06:23:44;;;;;;;3.92;1.00;;;18.50;98.60;;;;;;4998290;28;20037;-82
2023/09/20 06:26:12;;;;;;;5.07;1.30;;;18.50;98.70;;;;;;4998104;28;20042;-81
2023/09/20 06:28:40;;;;;;;4.82;1.35;;;18.60;98.50;;;;;;4998348;28;20077;-81
2023/09/20 06:31:07;;;;;;;9.73;1.55;;;18.60;98.50;;;;;;4998417;28;20038;-81
2023/09/20 06:33:33;;;;;;;7.75;1.52;;;18.60;98.60;;;;;;4998052;28;20085;-80
2023/09/20 06:35:59;;;;;;;4.20;1.40;;;18.50;98.60;;;;;;4998651;28;20023;-80
2023/09/20 06:38:25;;;;;;;6.90;1.77;;;18.60;98.80;;;;;;4999048;28;20054;-82
2023/09/20 06:40:52;;;;;;;3.97;1.27;;;18.60;98.70;;;;;;4998899;28;20041;-81
2023/09/20 06:43:18;;;;;;;5.07;1.42;;;18.60;98.60;;;;;;5014621;28;20399;-82
2023/09/20 06:45:51;;;;;;;4.15;1.70;;;18.60;98.60;;;;;;4997814;28;20066;-81
2023/09/20 06:48:22;;;;;;;6.10;1.67;;;18.70;98.60;;;;;;4997959;28;20045;-80
2023/09/20 06:50:55;;;;;;;5.00;1.37;;;18.70;98.60;;;;;;4998667;28;20026;-82
2023/09/20 06:53:23;;;;;;;;;;;18.70;98.70;;;;;;5000357;28;20034;-81
2023/09/20 06:55:49;;;;;;;5.63;1.83;;;18.80;98.50;;;;;;4998983;28;19948;-82
2023/09/20 06:58:15;;;;;;;6.40;1.42;;;18.80;98.50;;;;;;4998617;28;20037;-81
2023/09/20 07:00:41;;;;;;;5.80;1.20;;;18.90;98.40;;;;;;4999080;28;20030;-81
2023/09/20 07:03:08;;;;;;;5.13;1.30;;;18.90;98.20;;;;;;4998863;28;20153;-80
2023/09/20 07:05:34;;;;;;;7.78;1.30;;;18.90;98.30;;;;;;4996871;28;20188;-80
2023/09/20 07:08:00;;;;;;;5.25;1.50;;;18.90;98.40;;;;;;5005093;28;20481;-83
2023/09/20 07:10:28;;;;;;;4.53;0.98;;;18.90;98.40;;;;;;4999864;28;20038;-81
2023/09/20 07:12:54;;;;;;;8.63;1.80;;;18.90;98.40;;;;;;5015993;28;20422;-82
2023/09/20 07:15:21;;;;;;;5.63;1.13;;;18.90;98.60;;;;;;5017156;28;20022;-81
2023/09/20 07:17:58;;;;;;;4.10;1.08;;;18.90;98.60;;;;;;5017320;28;20022;-83
2023/09/20 07:20:31;;;;;;;6.55;1.77;;;19.00;98.40;;;;;;5018636;28;20080;-83
2023/09/20 07:22:58;;;;;;;5.25;1.52;;;19.10;98.60;;;;;;4985314;28;20030;-83
2023/09/20 07:25:27;;;;;;;4.60;1.13;;;19.10;98.10;;;;;;5018698;28;20061;-82
2023/09/20 07:28:00;;;;;;;6.40;1.55;;;19.20;98.20;;;;;;5018820;28;20556;-82
2023/09/20 07:30:31;;;;;;;;;;;19.20;98.20;;;;;;5018693;28;20088;-83
2023/09/20 07:32:59;;;;;;;6.97;1.27;;;19.30;98.10;;;;;;5019623;28;19988;-83
2023/09/20 07:35:33;;;;;;;7.30;1.60;;;19.30;98.10;;;;;;5018694;28;20451;-81
2023/09/20 07:38:04;;;;;;;5.03;1.10;;;19.30;98.00;;;;;;5017988;28;20335;-82
2023/09/20 07:40:33;;;;;;;3.75;1.48;;;19.30;97.90;;;;;;5016598;28;20475;-81
2023/09/20 07:43:07;;;;;;;7.40;1.70;;;19.20;97.90;;;;;;5016458;28;20101;-82
2023/09/20 07:45:41;;;;;;;3.05;0.80;;;19.20;98.10;;;;;;5016169;28;20061;-82
2023/09/20 07:48:16;;;;;;;3.35;1.05;;;19.20;98.20;;;;;;5016504;28;20022;-82
2023/09/20 07:50:50;;;;;;;6.38;1.75;;;19.30;98.00;;;;;;5017029;28;20060;-83
2023/09/20 07:53:18;;;;;;;4.63;1.30;;;19.20;98.00;;;;;;5016397;28;20022;-83
2023/09/20 07:55:55;;;;;;;4.15;1.23;;;19.20;98.20;;;;;;5016412;28;20033;-83
2023/09/20 07:58:21;;;;;;;4.88;1.08;;;19.20;98.20;;;;;;5014889;28;20137;-82
2023/09/20 08:00:51;;;;;;;3.03;1.02;;;19.20;98.10;;;;;;5016059;28;20030;-82
2023/09/20 08:03:18;;;;;;;3.38;0.85;;;19.20;98.30;;;;;;5016020;28;20030;-82
2023/09/20 08:05:44;;;;;;;5.18;1.10;;;19.20;98.30;;;;;;5016433;28;20084;-81
2023/09/20 08:08:10;;;;;;;3.47;1.00;;;19.20;98.20;;;;;;4998980;28;20053;-81
2023/09/20 08:10:37;;;;;;;3.08;1.02;;;19.30;98.10;;;;;;5015760;28;20121;-81
2023/09/20 08:13:04;;;;;;;4.85;1.08;;;19.40;98.20;;;;;;5016041;28;20030;-80
2023/09/20 08:15:38;;;;;;;5.22;1.30;;;19.40;98.00;;;;;;5016459;28;20454;-82
2023/09/20 08:20:48;;;;;;;5.90;1.00;;;19.50;98.00;;;;;;5016551;28;20053;-81
2023/09/20 09:01:48;;;;;;;4.68;1.08;;;19.70;98.00;;;;;;5016490;28;20084;-82
2023/09/20 09:04:18;;;;;;;2.33;0.98;;;19.60;97.60;;;;;;4998933;28;20042;-83
2023/09/20 09:06:44;;;;;;;9.65;2.08;;;19.60;97.40;;;;;;4998270;28;20065;-83
2023/09/20 09:09:13;;;;;;;5.10;1.05;;;19.50;97.50;;;;;;5016332;28;20081;-82
2023/09/20 09:11:38;;;;;;;4.57;1.33;;;19.60;97.50;;;;;;5016948;28;20030;-82
2023/09/20 09:14:05;;;;;;;4.75;1.08;;;19.50;97.60;;;;;;5016103;28;20098;-82
2023/09/20 09:16:33;;;;;;;5.43;0.98;;;19.60;98.00;;;;;;5017481;28;20022;-83
2023/09/20 09:18:59;;;;;;;1.35;0.70;;;19.70;97.70;;;;;;5014964;28;20121;-83
2023/09/20 09:21:27;;;;;;;3.78;0.80;;;19.70;97.50;;;;;;5015601;28;20030;-83
2023/09/20 09:23:53;;;;;;;2.60;0.80;;;19.80;97.40;;;;;;5015695;28;20092;-86
2023/09/20 09:26:18;;;;;;;2.72;0.93;;;19.80;97.50;;;;;;4998676;28;20034;-82
2023/09/20 09:28:47;;;;;;;4.38;0.70;;;19.80;97.50;;;;;;5015938;28;20426;-84
2023/09/20 09:31:14;;;;;;;4.35;0.98;;;19.90;97.40;;;;;;5016180;28;20081;-84
2023/09/20 09:33:40;;;;;;;3.58;1.20;;;19.80;96.90;;;;;;4998184;28;20041;-84
2023/09/20 09:36:07;;;;;;;6.82;1.25;;;19.80;96.70;;;;;;5015254;28;20052;-83
2023/09/20 09:38:34;;;;;;;6.82;1.35;;;19.80;96.80;;;;;;5015433;28;20033;-82
2023/09/20 09:41:02;;;;;;;4.20;0.90;;;19.80;96.90;;;;;;4997259;28;20062;-84
2023/09/20 09:43:31;;;;;;;5.00;1.33;;;19.80;97.10;;;;;;5016336;28;20029;-83
2023/09/20 09:46:08;;;;;;;3.97;1.10;;;19.90;96.90;;;;;;5015885;28;20048;-85
2023/09/20 09:48:35;;;;;;;4.63;1.33;;;20.00;96.50;;;;;;5015027;28;20103;-83
2023/09/20 09:51:01;;;;;;;2.30;0.85;;;20.10;96.50;;;;;;4997131;28;20421;-83
2023/09/20 09:53:29;;;;;;;7.03;1.63;;;20.10;96.80;;;;;;5014507;28;20451;-84
2023/09/20 09:55:56;;;;;;;8.52;2.58;;;20.20;96.60;;;;;;5014711;28;20502;-84
2023/09/20 09:58:22;;;;;;;4.03;1.80;;;20.30;96.40;;;;;;4997927;28;20478;-84
2023/09/20 10:00:51;;;;;;;4.40;1.63;;;20.40;96.10;;;;;;5014888;28;20487;-83
2023/09/20 10:03:32;;;;;;;6.30;1.40;;;20.50;96.00;;;;;;5015060;28;20072;-83
2023/09/20 10:06:08;;;;;;;4.03;1.40;;;20.60;95.40;;;;;;5015438;28;20069;-84
2023/09/20 10:08:38;;;;;;;3.80;1.50;;;20.60;95.50;;;;;;5014915;28;20061;-81
2023/09/20 10:11:05;;;;;;;4.15;1.80;;;20.60;95.40;;;;;;5015388;28;20060;-84
2023/09/20 10:13:34;;;;;;;7.38;1.83;;;20.70;95.50;;;;;;5015821;28;20440;-84
2023/09/20 10:16:04;;;;;;;7.38;1.80;;;20.60;95.10;;;;;;5015368;28;20041;-83
2023/09/20 10:18:43;;;;;;;4.22;1.35;;;20.50;95.00;;;;;;5014890;28;20026;-83
2023/09/20 10:21:14;;;;;;;5.38;1.77;;;20.50;95.30;;;;;;5013880;28;20030;-84
2023/09/20 10:23:42;;;;;;;4.05;1.48;;;20.50;95.20;;;;;;4998303;28;20113;-84
2023/09/20 10:26:18;;;;;;;4.10;1.48;;;20.40;95.40;;;;;;4996433;28;20034;-84
2023/09/20 10:28:45;;;;;;;7.10;1.70;;;20.40;95.70;;;;;;5014505;28;20030;-83
2023/09/20 10:31:16;;;;;;;5.70;2.47;;;20.40;95.60;;;;;;4996642;28;20038;-84
2023/09/20 10:33:46;;;;;;;4.78;1.60;;;20.40;95.90;;;;;;5014230;28;20835;-83
2023/09/20 10:36:24;;;;;;;7.45;1.90;;;20.50;96.00;;;;;;5014012;28;20026;-83
2023/09/20 10:39:12;;;;;;;3.72;1.30;;;20.50;96.30;;;;;;4997141;28;20034;-84
2023/09/20 10:41:40;;;;;;;2.28;1.10;;;20.50;96.00;;;;;;5014719;28;20363;-85
2023/09/20 10:44:06;;;;;;;4.13;1.73;;;20.50;95.90;;;;;;5013480;28;20041;-85
2023/09/20 10:46:35;;;;;;;5.25;1.33;;;20.60;96.00;;;;;;5013386;28;20038;-88
2023/09/20 10:49:03;;;;;;;4.45;1.70;;;20.70;95.70;;;;;;5013709;28;20541;-86
2023/09/20 10:51:53;;;;;;;3.35;1.30;;;20.70;95.70;;;;;;5013801;28;20033;-87
2023/09/20 10:54:34;;;;;;;3.25;1.20;;;20.80;95.40;;;;;;4997202;28;20042;-85
2023/09/20 10:57:10;;;;;;;4.70;1.40;;;20.80;95.80;;;;;;4997349;28;20084;-87
2023/09/20 10:59:41;;;;;;;5.47;1.35;;;21.00;96.10;;;;;;5014719;28;20022;-86
2023/09/20 11:02:18;;;;;;;5.15;1.35;;;21.10;95.90;;;;;;5017468;28;20036;-81
2023/09/20 11:04:46;;;;;;;3.88;0.85;;;21.20;95.60;;;;;;5000510;28;20517;-82
2023/09/20 11:07:12;;;;;;;3.67;1.23;;;21.20;95.60;;;;;;5018780;28;20042;-83
2023/09/20 11:09:42;;;;;;;2.58;0.68;;;21.10;95.60;;;;;;5019351;28;20426;-81
2023/09/20 11:12:09;;;;;;;4.18;1.40;;;21.20;95.10;;;;;;5019120;28;20057;-83
2023/09/20 11:14:44;;;;;;;5.13;0.90;;;21.30;95.20;;;;;;5001421;28;20033;-82
2023/09/20 11:17:13;;;;;;;4.35;1.10;;;21.30;94.80;;;;;;5000487;28;20403;-83
2023/09/20 11:19:39;;;;;;;3.58;1.10;;;21.40;94.80;;;;;;5017053;28;20048;-84
2023/09/20 11:22:05;;;;;;;4.32;0.90;;;21.30;95.10;;;;;;5000650;28;20029;-82
2023/09/20 11:24:32;;;;;;;3.92;1.17;;;21.40;94.70;;;;;;5016283;28;20514;-83
2023/09/20 11:26:58;;;;;;;4.07;0.80;;;21.40;94.80;;;;;;4999146;28;20030;-83
2023/09/20 11:29:26;;;;;;;4.28;0.88;;;21.40;94.90;;;;;;4999294;28;20029;-83
2023/09/20 11:31:57;;;;;;;2.38;0.80;;;21.50;94.50;;;;;;5017141;28;20108;-83
2023/09/20 11:34:23;;;;;;;3.70;0.80;;;21.50;94.30;;;;;;5016959;28;20134;-84
2023/09/20 11:36:53;;;;;;;2.63;0.93;;;21.60;94.30;;;;;;5018210;28;20022;-83
2023/09/20 11:39:27;;;;;;;2.97;0.60;;;21.60;94.30;;;;;;5018468;28;20022;-83
2023/09/20 11:41:59;;;;;;;3.35;1.10;;;21.50;94.40;;;;;;5000489;28;20038;-84
2023/09/20 11:44:25;;;;;;;2.17;0.82;;;21.50;94.60;;;;;;5016381;28;20034;-83
2023/09/20 11:46:53;;;;;;;2.85;0.88;;;21.50;94.70;;;;;;5016842;28;20041;-82
2023/09/20 11:49:20;;;;;;;8.23;0.93;;;21.60;94.80;;;;;;5016564;28;20030;-82
2023/09/20 11:51:45;;;;;;;2.40;1.20;;;21.60;94.90;;;;;;5016629;28;20058;-83
2023/09/20 11:54:11;;;;;;;4.82;1.02;;;21.80;95.30;;;;;;5015771;28;20076;-83
2023/09/20 11:56:37;;;;;;;6.22;1.23;;;21.90;94.60;;;;;;4998983;28;20523;-84
2023/09/20 11:59:09;;;;;;;3.72;1.00;;;22.00;94.20;;;;;;4999555;28;20061;-83
2023/09/20 12:01:40;;;;;;;3.35;0.82;;;22.00;93.90;;;;;;5017349;28;20038;-82
2023/09/20 12:04:07;;;;;;;2.90;0.70;;;22.10;93.20;;;;;;5016622;28;20037;-83
2023/09/20 12:06:32;;;;;;;3.08;0.98;;;22.10;93.20;;;;;;5015707;28;20486;-82
2023/09/20 12:09:01;;;;;;;2.55;0.57;;;22.20;93.40;;;;;;5017627;28;20050;-82
2023/09/20 12:11:28;;;;;;;4.72;0.40;;;22.20;92.80;;;;;;5016754;28;20030;-84
2023/09/20 12:13:54;;;;;;;2.38;0.57;;;22.20;92.60;;;;;;5016304;28;20040;-83
2023/09/20 12:16:23;;;;;;;2.55;0.68;;;22.40;92.90;;;;;;5017479;28;20378;-83
2023/09/20 12:18:50;;;;;;;2.35;0.50;;;22.50;92.20;;;;;;5000502;28;20032;-83
2023/09/20 12:21:16;;;;;;;2.35;0.57;;;22.50;91.70;;;;;;5015894;28;20026;-83
2023/09/20 12:23:42;;;;;;;2.92;0.63;;;22.50;91.60;;;;;;4999386;28;20049;-83
2023/09/20 12:26:08;;;;;;;4.03;0.70;;;22.50;91.70;;;;;;5016056;28;20050;-83
2023/09/20 12:28:35;;;;;;;4.35;0.65;;;22.60;91.80;;;;;;5016027;28;20080;-81
2023/09/20 12:31:01;;;;;;;5.07;1.05;;;22.60;91.80;;;;;;5015060;28;20328;-83
2023/09/20 12:33:27;;;;;;;2.35;0.63;;;22.50;91.70;;;;;;5015536;28;20072;-83
2023/09/20 12:35:59;;;;;;;2.40;0.60;;;22.40;92.10;;;;;;5014561;28;20120;-83
2023/09/20 12:38:35;;;;;;;2.67;0.63;;;22.30;91.90;;;;;;5016276;28;20030;-82
2023/09/20 12:41:00;;;;;;;2.30;0.60;;;22.30;92.10;;;;;;5000165;28;20054;-81
2023/09/20 12:43:26;;;;;;;2.85;0.80;;;22.30;92.40;;;;;;5015461;28;20070;-83
2023/09/20 12:45:57;;;;;;;4.10;0.70;;;22.40;92.50;;;;;;5016489;28;20042;-83
2023/09/20 12:48:23;;;;;;;2.38;0.75;;;22.40;91.50;;;;;;4998830;28;20029;-82
2023/09/20 12:50:48;;;;;;;2.83;0.70;;;22.50;91.30;;;;;;4998275;28;20041;-83
2023/09/20 12:53:14;;;;;;;4.80;0.90;;;22.50;91.30;;;;;;4997843;28;20030;-82
2023/09/20 12:55:40;;;;;;;3.38;0.65;;;22.50;91.10;;;;;;5015609;28;20060;-83
2023/09/20 12:58:07;;;;;;;1.05;0.30;;;22.50;91.50;;;;;;4999573;28;20072;-85
2023/09/20 13:00:37;;;;;;;2.50;0.52;;;22.50;91.90;;;;;;5018470;28;20036;-83
2023/09/20 13:03:06;;;;;;;3.20;0.50;;;22.50;91.40;;;;;;5014568;28;20026;-84
2023/09/20 13:05:32;;;;;;;4.97;0.60;;;22.50;91.70;;;;;;5015041;28;20040;-86
2023/09/20 13:07:59;;;;;;;2.25;0.50;;;22.40;91.80;;;;;;5015077;28;20072;-86
2023/09/20 13:10:26;;;;;;;2.53;0.98;;;22.30;91.90;;;;;;5015731;28;20120;-86
2023/09/20 13:12:53;;;;;;;3.60;0.98;;;22.40;92.00;;;;;;5015182;28;20026;-86
2023/09/20 13:15:19;;;;;;;3.00;0.82;;;22.40;91.70;;;;;;4997751;28;20068;-85
2023/09/20 13:17:50;;;;;;;3.60;0.80;;;22.60;91.40;;;;;;5015169;28;20034;-88
2023/09/20 13:20:18;;;;;;;1.77;1.00;;;22.60;91.10;;;;;;4998286;28;20068;-88
2023/09/20 13:22:45;;;;;;;3.75;0.82;;;22.70;90.00;;;;;;5015114;28;20034;-87
2023/09/20 13:25:14;;;;;;;1.45;0.52;;;22.80;90.00;;;;;;5015258;28;20042;-86
2023/09/20 13:27:42;;;;;;;3.30;0.57;;;22.80;90.30;;;;;;4981809;28;20030;-86
2023/09/20 13:30:10;;;;;;;3.13;0.75;;;22.80;90.30;;;;;;5015685;28;20030;-89
2023/09/20 13:32:39;;;;;;;2.20;0.70;;;22.80;90.60;;;;;;5015050;28;20034;-87
2023/09/20 13:35:17;;;;;;;5.35;0.77;;;22.90;91.00;;;;;;5014231;28;20459;-85